sensor_id;sensor_type;location;lat;lon;timestamp;pressure;altitude;pressure_sealevel;temperature
24714;BMP280;12820;51.580;5.010;2023-05-07T00:00:51;101551.75;;;17.51
24714;BMP280;12820;51.580;5.010;2023-05-07T00:05:54;101546.75;;;17.49
24714;BMP280;12820;51.580;5.010;2023-05-07T00:10:56;101554.38;;;17.49
24714;BMP280;12820;51.580;5.010;2023-05-07T00:15:58;101555.25;;;17.48
24714;BMP280;12820;51.580;5.010;2023-05-07T00:21:01;101555.25;;;17.48
24714;BMP280;12820;51.580;5.010;2023-05-07T00:26:03;101545.09;;;17.48
24714;BMP280;12820;51.580;5.010;2023-05-07T00:31:06;101546.75;;;17.49
24714;BMP280;12820;51.580;5.010;2023-05-07T00:36:08;101550.16;;;17.48
24714;BMP280;12820;51.580;5.010;2023-05-07T00:41:10;101549.28;;;17.49
24714;BMP280;12820;51.580;5.010;2023-05-07T00:46:13;101540.00;;;17.48
24714;BMP280;12820;51.580;5.010;2023-05-07T00:51:16;101545.09;;;17.48
24714;BMP280;12820;51.580;5.010;2023-05-07T00:56:21;101540.00;;;17.48
24714;BMP280;12820;51.580;5.010;2023-05-07T01:01:23;101538.31;;;17.47
24714;BMP280;12820;51.580;5.010;2023-05-07T01:06:25;101542.56;;;17.47
24714;BMP280;12820;51.580;5.010;2023-05-07T01:11:30;101529.03;;;17.46
24714;BMP280;12820;51.580;5.010;2023-05-07T01:16:32;101529.03;;;17.46
24714;BMP280;12820;51.580;5.010;2023-05-07T01:21:36;101524.06;;;17.43
24714;BMP280;12820;51.580;5.010;2023-05-07T01:26:42;101517.19;;;17.45
24714;BMP280;12820;51.580;5.010;2023-05-07T01:31:47;101511.34;;;17.43
24714;BMP280;12820;51.580;5.010;2023-05-07T01:36:50;101507.97;;;17.43
24714;BMP280;12820;51.580;5.010;2023-05-07T01:41:56;101500.34;;;17.43
24714;BMP280;12820;51.580;5.010;2023-05-07T01:46:59;101494.53;;;17.40
24714;BMP280;12820;51.580;5.010;2023-05-07T01:52:02;101492.88;;;17.39
24714;BMP280;12820;51.580;5.010;2023-05-07T01:57:05;101503.22;;;17.33
24714;BMP280;12820;51.580;5.010;2023-05-07T02:02:08;101484.75;;;17.28
24714;BMP280;12820;51.580;5.010;2023-05-07T02:07:13;101497.59;;;17.24
24714;BMP280;12820;51.580;5.010;2023-05-07T02:12:15;101499.44;;;17.19
24714;BMP280;12820;51.580;5.010;2023-05-07T02:17:17;101499.47;;;17.17
24714;BMP280;12820;51.580;5.010;2023-05-07T02:22:20;101495.34;;;17.13
24714;BMP280;12820;51.580;5.010;2023-05-07T02:27:22;101506.47;;;17.11
24714;BMP280;12820;51.580;5.010;2023-05-07T02:32:25;101499.72;;;17.10
24714;BMP280;12820;51.580;5.010;2023-05-07T02:37:27;101507.38;;;17.08
24714;BMP280;12820;51.580;5.010;2023-05-07T02:42:30;101504.09;;;17.05
24714;BMP280;12820;51.580;5.010;2023-05-07T02:47:32;101499.94;;;17.03
24714;BMP280;12820;51.580;5.010;2023-05-07T02:52:36;101511.88;;;16.99
24714;BMP280;12820;51.580;5.010;2023-05-07T02:57:39;101517.94;;;16.95
24714;BMP280;12820;51.580;5.010;2023-05-07T03:02:42;101504.50;;;16.92
24714;BMP280;12820;51.580;5.010;2023-05-07T03:07:45;101507.91;;;16.89
24714;BMP280;12820;51.580;5.010;2023-05-07T03:12:49;101510.44;;;16.89
24714;BMP280;12820;51.580;5.010;2023-05-07T03:17:52;101508.84;;;16.87
24714;BMP280;12820;51.580;5.010;2023-05-07T03:22:54;101504.63;;;16.86
24714;BMP280;12820;51.580;5.010;2023-05-07T03:27:56;101502.97;;;16.85
24714;BMP280;12820;51.580;5.010;2023-05-07T03:33:04;101509.81;;;16.83
24714;BMP280;12820;51.580;5.010;2023-05-07T03:38:07;101502.25;;;16.80
24714;BMP280;12820;51.580;5.010;2023-05-07T03:43:11;101502.38;;;16.77
24714;BMP280;12820;51.580;5.010;2023-05-07T03:48:18;101511.72;;;16.75
24714;BMP280;12820;51.580;5.010;2023-05-07T03:53:24;101515.19;;;16.73
24714;BMP280;12820;51.580;5.010;2023-05-07T03:58:26;101515.22;;;16.71
24714;BMP280;12820;51.580;5.010;2023-05-07T04:03:32;101518.59;;;16.72
24714;BMP280;12820;51.580;5.010;2023-05-07T04:08:35;101516.06;;;16.72
24714;BMP280;12820;51.580;5.010;2023-05-07T04:13:39;101512.69;;;16.71
24714;BMP280;12820;51.580;5.010;2023-05-07T04:18:43;101521.97;;;16.72
24714;BMP280;12820;51.580;5.010;2023-05-07T04:23:47;101527.06;;;16.72
24714;BMP280;12820;51.580;5.010;2023-05-07T04:28:49;101523.66;;;16.73
24714;BMP280;12820;51.580;5.010;2023-05-07T04:33:53;101531.16;;;16.76
24714;BMP280;12820;51.580;5.010;2023-05-07T04:38:55;101526.88;;;16.78
24714;BMP280;12820;51.580;5.010;2023-05-07T04:43:58;101530.13;;;16.83
24714;BMP280;12820;51.580;5.010;2023-05-07T04:49:04;101521.47;;;16.88
24714;BMP280;12820;51.580;5.010;2023-05-07T04:54:07;101524.81;;;16.92
24714;BMP280;12820;51.580;5.010;2023-05-07T04:59:09;101533.06;;;16.98
24714;BMP280;12820;51.580;5.010;2023-05-07T05:04:12;101537.16;;;17.04
24714;BMP280;12820;51.580;5.010;2023-05-07T05:09:15;101532.72;;;17.10
24714;BMP280;12820;51.580;5.010;2023-05-07T05:14:18;101539.25;;;17.18
24714;BMP280;12820;51.580;5.010;2023-05-07T05:19:20;101540.63;;;17.28
24714;BMP280;12820;51.580;5.010;2023-05-07T05:24:22;101546.34;;;17.36
24714;BMP280;12820;51.580;5.010;2023-05-07T05:29:25;101548.63;;;17.43
24714;BMP280;12820;51.580;5.010;2023-05-07T05:34:27;101558.56;;;17.50
24714;BMP280;12820;51.580;5.010;2023-05-07T05:39:30;101556.63;;;17.58
24714;BMP280;12820;51.580;5.010;2023-05-07T05:44:33;101563.97;;;17.67
24714;BMP280;12820;51.580;5.010;2023-05-07T05:49:36;101561.13;;;17.76
24714;BMP280;12820;51.580;5.010;2023-05-07T05:54:39;101564.25;;;17.85
24714;BMP280;12820;51.580;5.010;2023-05-07T05:59:42;101566.59;;;17.91
24714;BMP280;12820;51.580;5.010;2023-05-07T06:04:44;101565.59;;;17.96
24714;BMP280;12820;51.580;5.010;2023-05-07T06:09:52;101572.13;;;18.03
24714;BMP280;12820;51.580;5.010;2023-05-07T06:14:55;101574.41;;;18.12
24714;BMP280;12820;51.580;5.010;2023-05-07T06:19:58;101570.72;;;18.20
24714;BMP280;12820;51.580;5.010;2023-05-07T06:25:01;101578.00;;;18.30
24714;BMP280;12820;51.580;5.010;2023-05-07T06:30:04;101573.25;;;18.44
24714;BMP280;12820;51.580;5.010;2023-05-07T06:35:07;101576.22;;;18.56
24714;BMP280;12820;51.580;5.010;2023-05-07T06:40:12;101584.34;;;18.65
24714;BMP280;12820;51.580;5.010;2023-05-07T06:45:16;101594.34;;;18.72
24714;BMP280;12820;51.580;5.010;2023-05-07T06:50:18;101595.84;;;18.78
24714;BMP280;12820;51.580;5.010;2023-05-07T06:55:22;101597.22;;;18.86
24714;BMP280;12820;51.580;5.010;2023-05-07T07:00:25;101595.06;;;18.98
24714;BMP280;12820;51.580;5.010;2023-05-07T07:05:30;101586.63;;;19.19
24714;BMP280;12820;51.580;5.010;2023-05-07T07:10:33;101597.53;;;19.44
24714;BMP280;12820;51.580;5.010;2023-05-07T07:15:36;101587.00;;;19.74
24714;BMP280;12820;51.580;5.010;2023-05-07T07:20:39;101591.78;;;20.02
24714;BMP280;12820;51.580;5.010;2023-05-07T07:25:43;101589.56;;;20.35
24714;BMP280;12820;51.580;5.010;2023-05-07T07:30:46;101599.25;;;20.66
24714;BMP280;12820;51.580;5.010;2023-05-07T07:35:50;101603.13;;;20.94
24714;BMP280;12820;51.580;5.010;2023-05-07T07:40:53;101591.91;;;21.16
24714;BMP280;12820;51.580;5.010;2023-05-07T07:45:57;101604.50;;;21.38
24714;BMP280;12820;51.580;5.010;2023-05-07T07:51:00;101595.28;;;21.53
24714;BMP280;12820;51.580;5.010;2023-05-07T07:56:04;101606.53;;;21.67
24714;BMP280;12820;51.580;5.010;2023-05-07T08:01:09;101604.88;;;21.84
24714;BMP280;12820;51.580;5.010;2023-05-07T08:06:26;101606.66;;;22.00
24714;BMP280;12820;51.580;5.010;2023-05-07T08:11:29;101617.50;;;22.21
24714;BMP280;12820;51.580;5.010;2023-05-07T08:16:31;101612.16;;;22.42
24714;BMP280;12820;51.580;5.010;2023-05-07T08:21:38;101609.31;;;22.64
24714;BMP280;12820;51.580;5.010;2023-05-07T08:26:41;101619.31;;;22.85
24714;BMP280;12820;51.580;5.010;2023-05-07T08:31:45;101617.69;;;22.99
24714;BMP280;12820;51.580;5.010;2023-05-07T08:36:48;101618.38;;;23.18
24714;BMP280;12820;51.580;5.010;2023-05-07T08:41:55;101623.38;;;23.36
24714;BMP280;12820;51.580;5.010;2023-05-07T08:47:00;101627.38;;;23.56
24714;BMP280;12820;51.580;5.010;2023-05-07T08:52:04;101627.84;;;23.78
24714;BMP280;12820;51.580;5.010;2023-05-07T08:57:12;101621.38;;;24.01
24714;BMP280;12820;51.580;5.010;2023-05-07T09:02:22;101626.31;;;24.19
24714;BMP280;12820;51.580;5.010;2023-05-07T09:07:25;101620.03;;;24.38
24714;BMP280;12820;51.580;5.010;2023-05-07T09:12:28;101621.41;;;24.58
24714;BMP280;12820;51.580;5.010;2023-05-07T09:17:31;101620.31;;;24.76
24714;BMP280;12820;51.580;5.010;2023-05-07T09:22:36;101609.94;;;24.91
24714;BMP280;12820;51.580;5.010;2023-05-07T09:27:42;101612.78;;;25.14
24714;BMP280;12820;51.580;5.010;2023-05-07T09:32:44;101609.50;;;25.39
24714;BMP280;12820;51.580;5.010;2023-05-07T09:37:53;101623.63;;;25.60
24714;BMP280;12820;51.580;5.010;2023-05-07T09:43:09;101619.16;;;25.75
24714;BMP280;12820;51.580;5.010;2023-05-07T09:48:15;101627.25;;;25.83
24714;BMP280;12820;51.580;5.010;2023-05-07T09:53:24;101618.03;;;25.93
24714;BMP280;12820;51.580;5.010;2023-05-07T09:58:27;101617.22;;;26.04
24714;BMP280;12820;51.580;5.010;2023-05-07T10:03:30;101623.72;;;26.10
24714;BMP280;12820;51.580;5.010;2023-05-07T10:08:39;101621.81;;;26.13
24714;BMP280;12820;51.580;5.010;2023-05-07T10:13:43;101622.50;;;26.15
24714;BMP280;12820;51.580;5.010;2023-05-07T10:18:46;101627.38;;;26.19
24714;BMP280;12820;51.580;5.010;2023-05-07T10:23:59;101634.78;;;26.24
24714;BMP280;12820;51.580;5.010;2023-05-07T10:29:07;101628.00;;;26.23
24714;BMP280;12820;51.580;5.010;2023-05-07T10:34:16;101630.88;;;26.19
24714;BMP280;12820;51.580;5.010;2023-05-07T10:39:20;101636.03;;;26.19
24714;BMP280;12820;51.580;5.010;2023-05-07T10:44:28;101632.53;;;26.19
24714;BMP280;12820;51.580;5.010;2023-05-07T10:49:33;101640.25;;;26.19
24714;BMP280;12820;51.580;5.010;2023-05-07T10:54:40;101640.25;;;26.19
24714;BMP280;12820;51.580;5.010;2023-05-07T10:59:46;101641.59;;;26.25
24714;BMP280;12820;51.580;5.010;2023-05-07T11:05:20;101642.97;;;26.30
24714;BMP280;12820;51.580;5.010;2023-05-07T11:16:25;101641.91;;;26.46
24714;BMP280;12820;51.580;5.010;2023-05-07T11:21:53;101653.47;;;26.53
24714;BMP280;12820;51.580;5.010;2023-05-07T11:27:08;101654.81;;;26.58
24714;BMP280;12820;51.580;5.010;2023-05-07T11:32:12;101651.00;;;26.64
24714;BMP280;12820;51.580;5.010;2023-05-07T11:37:25;101654.09;;;26.69
24714;BMP280;12820;51.580;5.010;2023-05-07T11:42:34;101651.53;;;26.69
24714;BMP280;12820;51.580;5.010;2023-05-07T11:47:36;101646.47;;;26.67
24714;BMP280;12820;51.580;5.010;2023-05-07T11:52:50;101648.94;;;26.69
24714;BMP280;12820;51.580;5.010;2023-05-07T11:57:52;101656.28;;;26.74
24714;BMP280;12820;51.580;5.010;2023-05-07T12:02:54;101653.47;;;26.90
24714;BMP280;12820;51.580;5.010;2023-05-07T12:07:57;101645.47;;;27.06
24714;BMP280;12820;51.580;5.010;2023-05-07T12:12:59;101650.00;;;27.27
24714;BMP280;12820;51.580;5.010;2023-05-07T12:18:01;101655.53;;;27.45
24714;BMP280;12820;51.580;5.010;2023-05-07T12:23:04;101659.34;;;27.64
24714;BMP280;12820;51.580;5.010;2023-05-07T12:28:07;101657.28;;;27.80
24714;BMP280;12820;51.580;5.010;2023-05-07T12:33:10;101663.97;;;27.95
24714;BMP280;12820;51.580;5.010;2023-05-07T12:38:14;101662.16;;;28.07
24714;BMP280;12820;51.580;5.010;2023-05-07T12:43:21;101666.66;;;28.16
24714;BMP280;12820;51.580;5.010;2023-05-07T12:48:25;101669.66;;;28.22
24714;BMP280;12820;51.580;5.010;2023-05-07T12:53:29;101672.47;;;28.19
24714;BMP280;12820;51.580;5.010;2023-05-07T12:58:34;101681.13;;;27.96
24714;BMP280;12820;51.580;5.010;2023-05-07T13:03:37;101681.53;;;27.67
24714;BMP280;12820;51.580;5.010;2023-05-07T13:08:41;101688.59;;;27.41
24714;BMP280;12820;51.580;5.010;2023-05-07T13:13:45;101695.00;;;27.23
24714;BMP280;12820;51.580;5.010;2023-05-07T13:18:47;101698.13;;;27.16
24714;BMP280;12820;51.580;5.010;2023-05-07T13:23:49;101699.03;;;27.15
24714;BMP280;12820;51.580;5.010;2023-05-07T13:28:53;101691.53;;;27.12
24714;BMP280;12820;51.580;5.010;2023-05-07T13:33:55;101690.47;;;27.14
24714;BMP280;12820;51.580;5.010;2023-05-07T13:38:58;101687.16;;;27.25
24714;BMP280;12820;51.580;5.010;2023-05-07T13:44:02;101684.69;;;27.35
24714;BMP280;12820;51.580;5.010;2023-05-07T13:49:04;101690.44;;;27.51
24714;BMP280;12820;51.580;5.010;2023-05-07T13:54:06;101689.59;;;27.75
24714;BMP280;12820;51.580;5.010;2023-05-07T13:59:08;101694.56;;;28.00
24714;BMP280;12820;51.580;5.010;2023-05-07T14:04:10;101688.38;;;28.14
24714;BMP280;12820;51.580;5.010;2023-05-07T14:09:13;101685.00;;;28.36
24714;BMP280;12820;51.580;5.010;2023-05-07T14:14:15;101686.63;;;28.37
24714;BMP280;12820;51.580;5.010;2023-05-07T14:19:17;101697.13;;;28.35
24714;BMP280;12820;51.580;5.010;2023-05-07T14:24:19;101689.03;;;28.40
24714;BMP280;12820;51.580;5.010;2023-05-07T14:29:39;101691.31;;;28.55
24714;BMP280;12820;51.580;5.010;2023-05-07T14:34:42;101692.69;;;28.82
24714;BMP280;12820;51.580;5.010;2023-05-07T14:39:44;101681.72;;;29.55
24714;BMP280;12820;51.580;5.010;2023-05-07T14:44:51;101689.66;;;30.56
24714;BMP280;12820;51.580;5.010;2023-05-07T14:49:55;101682.00;;;30.24
24714;BMP280;12820;51.580;5.010;2023-05-07T14:54:59;101679.44;;;29.50
24714;BMP280;12820;51.580;5.010;2023-05-07T15:00:03;101687.03;;;28.77
24714;BMP280;12820;51.580;5.010;2023-05-07T15:05:07;101696.13;;;28.14
24714;BMP280;12820;51.580;5.010;2023-05-07T15:10:09;101696.84;;;27.70
24714;BMP280;12820;51.580;5.010;2023-05-07T15:15:11;101697.50;;;27.37
24714;BMP280;12820;51.580;5.010;2023-05-07T15:20:14;101699.88;;;27.15
24714;BMP280;12820;51.580;5.010;2023-05-07T15:25:16;101711.59;;;26.95
24714;BMP280;12820;51.580;5.010;2023-05-07T15:30:19;101708.19;;;26.82
24714;BMP280;12820;51.580;5.010;2023-05-07T15:35:22;101706.31;;;26.72
24714;BMP280;12820;51.580;5.010;2023-05-07T15:40:25;101716.63;;;26.60
24714;BMP280;12820;51.580;5.010;2023-05-07T15:45:27;101712.56;;;26.30
24714;BMP280;12820;51.580;5.010;2023-05-07T15:50:29;101714.59;;;26.00
24714;BMP280;12820;51.580;5.010;2023-05-07T15:55:31;101714.06;;;25.81
24714;BMP280;12820;51.580;5.010;2023-05-07T16:00:34;101714.56;;;25.74
24714;BMP280;12820;51.580;5.010;2023-05-07T16:05:37;101712.97;;;25.71
24714;BMP280;12820;51.580;5.010;2023-05-07T16:10:39;101708.94;;;25.67
24714;BMP280;12820;51.580;5.010;2023-05-07T16:15:41;101710.41;;;25.71
24714;BMP280;12820;51.580;5.010;2023-05-07T16:20:44;101716.09;;;25.76
24714;BMP280;12820;51.580;5.010;2023-05-07T16:25:46;101716.84;;;25.78
24714;BMP280;12820;51.580;5.010;2023-05-07T16:30:48;101718.50;;;25.79
24714;BMP280;12820;51.580;5.010;2023-05-07T16:35:51;101728.06;;;25.77
24714;BMP280;12820;51.580;5.010;2023-05-07T16:40:54;101733.50;;;25.73
24714;BMP280;12820;51.580;5.010;2023-05-07T16:45:56;101739.13;;;25.66
24714;BMP280;12820;51.580;5.010;2023-05-07T16:50:59;101741.53;;;25.55
24714;BMP280;12820;51.580;5.010;2023-05-07T16:56:05;101747.41;;;25.43
24714;BMP280;12820;51.580;5.010;2023-05-07T17:01:07;101740.59;;;25.29
24714;BMP280;12820;51.580;5.010;2023-05-07T17:06:11;101740.47;;;25.16
24714;BMP280;12820;51.580;5.010;2023-05-07T17:11:16;101745.50;;;25.04
24714;BMP280;12820;51.580;5.010;2023-05-07T17:16:18;101754.94;;;24.90
24714;BMP280;12820;51.580;5.010;2023-05-07T17:21:20;101755.91;;;24.74
24714;BMP280;12820;51.580;5.010;2023-05-07T17:26:22;101766.22;;;24.59
24714;BMP280;12820;51.580;5.010;2023-05-07T17:31:25;101765.22;;;24.46
24714;BMP280;12820;51.580;5.010;2023-05-07T17:36:27;101770.13;;;24.36
24714;BMP280;12820;51.580;5.010;2023-05-07T17:41:29;101764.59;;;24.28
24714;BMP280;12820;51.580;5.010;2023-05-07T17:46:32;101772.38;;;24.26
24714;BMP280;12820;51.580;5.010;2023-05-07T17:51:34;101780.84;;;24.28
24714;BMP280;12820;51.580;5.010;2023-05-07T17:56:54;101775.69;;;24.28
24714;BMP280;12820;51.580;5.010;2023-05-07T18:01:57;101791.25;;;24.25
24714;BMP280;12820;51.580;5.010;2023-05-07T18:06:59;101784.97;;;24.16
24714;BMP280;12820;51.580;5.010;2023-05-07T18:12:01;101785.66;;;24.04
24714;BMP280;12820;51.580;5.010;2023-05-07T18:17:03;101799.34;;;23.88
24714;BMP280;12820;51.580;5.010;2023-05-07T18:22:06;101802.94;;;23.69
24714;BMP280;12820;51.580;5.010;2023-05-07T18:27:09;101807.53;;;23.48
24714;BMP280;12820;51.580;5.010;2023-05-07T18:32:11;101808.59;;;23.27
24714;BMP280;12820;51.580;5.010;2023-05-07T18:37:14;101822.38;;;23.08
24714;BMP280;12820;51.580;5.010;2023-05-07T18:42:17;101829.53;;;22.85
24714;BMP280;12820;51.580;5.010;2023-05-07T18:47:19;101827.22;;;22.63
24714;BMP280;12820;51.580;5.010;2023-05-07T18:52:21;101836.66;;;22.44
24714;BMP280;12820;51.580;5.010;2023-05-07T18:57:24;101831.53;;;22.26
24714;BMP280;12820;51.580;5.010;2023-05-07T19:02:26;101839.16;;;22.10
24714;BMP280;12820;51.580;5.010;2023-05-07T19:07:28;101842.47;;;21.94
24714;BMP280;12820;51.580;5.010;2023-05-07T19:12:31;101844.00;;;21.78
24714;BMP280;12820;51.580;5.010;2023-05-07T19:17:34;101859.91;;;21.67
24714;BMP280;12820;51.580;5.010;2023-05-07T19:22:36;101874.09;;;21.54
24714;BMP280;12820;51.580;5.010;2023-05-07T19:27:39;101878.91;;;21.42
24714;BMP280;12820;51.580;5.010;2023-05-07T19:32:41;101886.13;;;21.33
24714;BMP280;12820;51.580;5.010;2023-05-07T19:37:43;101895.88;;;21.23
24714;BMP280;12820;51.580;5.010;2023-05-07T19:42:46;101898.81;;;21.15
24714;BMP280;12820;51.580;5.010;2023-05-07T19:47:48;101911.84;;;21.09
24714;BMP280;12820;51.580;5.010;2023-05-07T19:52:50;101908.66;;;21.02
24714;BMP280;12820;51.580;5.010;2023-05-07T19:57:53;101912.28;;;20.97
24714;BMP280;12820;51.580;5.010;2023-05-07T20:02:56;101916.81;;;20.91
24714;BMP280;12820;51.580;5.010;2023-05-07T20:07:59;101906.81;;;20.85
24714;BMP280;12820;51.580;5.010;2023-05-07T20:13:04;101931.72;;;20.80
24714;BMP280;12820;51.580;5.010;2023-05-07T20:18:06;101932.84;;;20.73
24714;BMP280;12820;51.580;5.010;2023-05-07T20:23:08;101937.28;;;20.68
24714;BMP280;12820;51.580;5.010;2023-05-07T20:28:10;101928.94;;;20.64
24714;BMP280;12820;51.580;5.010;2023-05-07T20:33:13;101931.75;;;20.58
24714;BMP280;12820;51.580;5.010;2023-05-07T20:38:15;101935.41;;;20.51
24714;BMP280;12820;51.580;5.010;2023-05-07T20:43:17;101945.84;;;20.45
24714;BMP280;12820;51.580;5.010;2023-05-07T20:48:19;101941.00;;;20.39
24714;BMP280;12820;51.580;5.010;2023-05-07T20:53:22;101945.47;;;20.33
24714;BMP280;12820;51.580;5.010;2023-05-07T20:58:26;101938.00;;;20.27
24714;BMP280;12820;51.580;5.010;2023-05-07T21:03:29;101949.25;;;20.22
24714;BMP280;12820;51.580;5.010;2023-05-07T21:08:31;101952.16;;;20.13
24714;BMP280;12820;51.580;5.010;2023-05-07T21:13:33;101949.88;;;20.06
24714;BMP280;12820;51.580;5.010;2023-05-07T21:18:35;101958.63;;;19.99
24714;BMP280;12820;51.580;5.010;2023-05-07T21:23:38;101964.00;;;19.92
24714;BMP280;12820;51.580;5.010;2023-05-07T21:28:40;101965.88;;;19.87
24714;BMP280;12820;51.580;5.010;2023-05-07T21:33:42;101966.81;;;19.83
24714;BMP280;12820;51.580;5.010;2023-05-07T21:38:45;101969.50;;;19.80
24714;BMP280;12820;51.580;5.010;2023-05-07T21:43:47;101968.78;;;19.76
24714;BMP280;12820;51.580;5.010;2023-05-07T21:48:49;101959.66;;;19.70
24714;BMP280;12820;51.580;5.010;2023-05-07T21:53:52;101968.41;;;19.63
24714;BMP280;12820;51.580;5.010;2023-05-07T21:58:56;101966.03;;;19.57
24714;BMP280;12820;51.580;5.010;2023-05-07T22:03:59;101970.47;;;19.52
24714;BMP280;12820;51.580;5.010;2023-05-07T22:09:01;101962.94;;;19.48
24714;BMP280;12820;51.580;5.010;2023-05-07T22:14:04;101978.38;;;19.43
24714;BMP280;12820;51.580;5.010;2023-05-07T22:19:07;101984.34;;;19.42
24714;BMP280;12820;51.580;5.010;2023-05-07T22:24:09;101968.31;;;19.39
24714;BMP280;12820;51.580;5.010;2023-05-07T22:29:11;101965.84;;;19.36
24714;BMP280;12820;51.580;5.010;2023-05-07T22:34:14;101971.03;;;19.35
24714;BMP280;12820;51.580;5.010;2023-05-07T22:39:16;101969.38;;;19.32
24714;BMP280;12820;51.580;5.010;2023-05-07T22:44:18;101968.63;;;19.30
24714;BMP280;12820;51.580;5.010;2023-05-07T22:49:20;101967.81;;;19.28
24714;BMP280;12820;51.580;5.010;2023-05-07T22:54:23;101966.19;;;19.26
24714;BMP280;12820;51.580;5.010;2023-05-07T22:59:26;101982.38;;;19.25
24714;BMP280;12820;51.580;5.010;2023-05-07T23:04:29;101988.41;;;19.22
24714;BMP280;12820;51.580;5.010;2023-05-07T23:09:31;101985.88;;;19.21
24714;BMP280;12820;51.580;5.010;2023-05-07T23:14:33;101991.94;;;19.19
24714;BMP280;12820;51.580;5.010;2023-05-07T23:19:35;101985.16;;;19.18
24714;BMP280;12820;51.580;5.010;2023-05-07T23:24:38;101986.03;;;19.17
24714;BMP280;12820;51.580;5.010;2023-05-07T23:29:41;101989.50;;;19.16
24714;BMP280;12820;51.580;5.010;2023-05-07T23:34:43;101997.19;;;19.13
24714;BMP280;12820;51.580;5.010;2023-05-07T23:39:45;101987.13;;;19.10
24714;BMP280;12820;51.580;5.010;2023-05-07T23:44:47;101989.75;;;19.07
24714;BMP280;12820;51.580;5.010;2023-05-07T23:49:50;101985.59;;;19.04
24714;BMP280;12820;51.580;5.010;2023-05-07T23:54:52;101989.09;;;19.01
24714;BMP280;12820;51.580;5.010;2023-05-07T23:59:55;101990.00;;;18.98
